createdAt,value
2023-04-16T00:01:34.860Z,9.92
2023-04-16T00:04:01.703Z,9.90
2023-04-16T00:06:28.687Z,9.95
2023-04-16T00:08:55.238Z,9.98
2023-04-16T00:11:22.128Z,9.98
2023-04-16T00:13:48.962Z,9.93
2023-04-16T00:16:15.529Z,9.87
2023-04-16T00:18:41.913Z,9.84
2023-04-16T00:21:08.292Z,9.84
2023-04-16T00:23:34.678Z,9.84
2023-04-16T00:26:01.162Z,9.65
2023-04-16T00:28:27.632Z,9.76
2023-04-16T00:30:54.811Z,9.81
2023-04-16T00:33:21.449Z,9.84
2023-04-16T00:35:48.534Z,9.86
2023-04-16T00:38:15.017Z,9.82
2023-04-16T00:40:41.393Z,9.79
2023-04-16T00:43:07.764Z,9.82
2023-04-16T00:45:34.472Z,9.79
2023-04-16T00:48:01.495Z,9.73
2023-04-16T00:50:28.216Z,9.73
2023-04-16T00:52:55.570Z,9.73
2023-04-16T00:55:22.103Z,9.69
2023-04-16T00:57:48.522Z,9.63
2023-04-16T01:00:15.006Z,9.66
2023-04-16T01:02:41.816Z,9.70
2023-04-16T01:05:08.497Z,9.74
2023-04-16T01:07:35.055Z,9.78
2023-04-16T01:10:01.451Z,9.81
2023-04-16T01:12:27.863Z,9.83
2023-04-16T01:14:54.391Z,9.83
2023-04-16T01:17:20.771Z,9.89
2023-04-16T01:19:47.139Z,9.89
2023-04-16T01:22:17.569Z,9.92
2023-04-16T01:24:45.085Z,9.90
2023-04-16T01:27:11.446Z,9.94
2023-04-16T01:29:37.867Z,9.95
2023-04-16T01:32:04.280Z,9.92
2023-04-16T01:34:33.946Z,9.89
2023-04-16T01:37:00.388Z,9.94
2023-04-16T01:39:28.660Z,9.98
2023-04-16T01:41:57.084Z,9.98
2023-04-16T01:44:23.605Z,9.98
2023-04-16T01:46:50.147Z,10.00
2023-04-16T01:49:16.716Z,10.02
2023-04-16T01:51:43.788Z,10.05
2023-04-16T01:54:10.170Z,10.06
2023-04-16T01:56:36.534Z,10.06
2023-04-16T01:59:03.157Z,10.08
2023-04-16T02:01:35.850Z,10.07
2023-04-16T02:04:03.153Z,10.04
2023-04-16T02:06:30.481Z,10.00
2023-04-16T02:08:56.874Z,9.94
2023-04-16T02:11:23.965Z,9.96
2023-04-16T02:13:50.751Z,10.03
2023-04-16T02:16:18.252Z,10.07
2023-04-16T02:19:04.503Z,10.07
2023-04-16T02:21:34.296Z,10.07
2023-04-16T02:24:00.795Z,10.07
2023-04-16T02:26:29.889Z,10.07
2023-04-16T02:29:01.851Z,10.06
2023-04-16T02:31:36.612Z,10.06
2023-04-16T02:34:03.790Z,10.04
2023-04-16T02:36:31.417Z,9.98
2023-04-16T02:38:58.568Z,9.99
2023-04-16T02:41:24.983Z,10.01
2023-04-16T02:43:51.417Z,10.04
2023-04-16T02:46:17.816Z,10.02
2023-04-16T02:48:44.216Z,10.00
2023-04-16T02:51:10.979Z,10.03
2023-04-16T02:53:37.413Z,10.01
2023-04-16T02:56:03.916Z,10.00
2023-04-16T02:58:30.873Z,10.09
2023-04-16T03:00:57.290Z,10.14
2023-04-16T03:03:23.947Z,10.14
2023-04-16T03:05:50.968Z,10.19
2023-04-16T03:08:17.366Z,10.22
2023-04-16T03:10:43.878Z,10.23
2023-04-16T03:13:10.257Z,10.24
2023-04-16T03:15:36.698Z,10.26
2023-04-16T03:18:03.188Z,10.26
2023-04-16T03:20:29.672Z,10.24
2023-04-16T03:22:57.144Z,10.21
2023-04-16T03:25:23.513Z,10.21
2023-04-16T03:27:51.005Z,10.24
2023-04-16T03:30:17.470Z,10.22
2023-04-16T03:32:43.927Z,10.23
2023-04-16T03:35:11.230Z,10.28
2023-04-16T03:37:37.812Z,10.28
2023-04-16T03:40:06.824Z,10.30
2023-04-16T03:42:33.520Z,10.31
2023-04-16T03:45:00.646Z,10.33
2023-04-16T03:47:28.056Z,10.33
2023-04-16T03:49:58.228Z,10.33
2023-04-16T03:52:24.648Z,10.33
2023-04-16T03:54:52.251Z,10.34
2023-04-16T03:57:25.802Z,10.36
2023-04-16T03:59:55.654Z,10.36
2023-04-16T04:02:23.240Z,10.37
2023-04-16T04:04:49.858Z,10.38
2023-04-16T04:07:17.093Z,10.37
2023-04-16T04:09:43.515Z,10.37
2023-04-16T04:12:10.133Z,10.38
2023-04-16T04:14:39.827Z,10.33
2023-04-16T04:17:07.971Z,10.37
2023-04-16T04:19:34.567Z,10.34
2023-04-16T04:22:02.082Z,10.38
2023-04-16T04:24:28.626Z,10.39
2023-04-16T04:26:55.162Z,10.43
2023-04-16T04:29:21.854Z,10.45
2023-04-16T04:31:49.365Z,10.42
2023-04-16T04:34:15.955Z,10.43
2023-04-16T04:36:42.450Z,10.45
2023-04-16T04:39:09.534Z,10.41
2023-04-16T04:41:36.325Z,10.44
2023-04-16T04:44:03.542Z,10.47
2023-04-16T04:46:30.103Z,10.46
2023-04-16T04:48:56.502Z,10.45
2023-04-16T04:51:22.906Z,10.47
2023-04-16T04:53:49.286Z,10.48
2023-04-16T04:56:15.755Z,10.46
2023-04-16T04:58:42.385Z,10.46
2023-04-16T05:01:08.825Z,10.47
2023-04-16T05:03:35.481Z,10.45
2023-04-16T05:06:02.044Z,10.41
2023-04-16T05:08:28.455Z,10.48
2023-04-16T05:10:54.891Z,10.49
2023-04-16T05:13:21.569Z,10.52
2023-04-16T05:15:47.972Z,10.51
2023-04-16T05:18:14.750Z,10.52
2023-04-16T05:20:41.118Z,10.52
2023-04-16T05:23:07.589Z,10.52
2023-04-16T05:25:33.986Z,10.54
2023-04-16T05:28:00.441Z,10.53
2023-04-16T05:30:26.804Z,10.55
2023-04-16T05:32:53.264Z,10.59
2023-04-16T05:35:19.711Z,10.61
2023-04-16T05:37:46.115Z,10.59
2023-04-16T05:40:14.044Z,10.59
2023-04-16T05:42:40.478Z,10.56
2023-04-16T05:45:07.317Z,10.61
2023-04-16T05:47:36.752Z,10.56
2023-04-16T05:50:03.155Z,10.60
2023-04-16T05:52:29.514Z,10.51
2023-04-16T05:54:55.989Z,10.38
2023-04-16T05:57:22.405Z,10.28
2023-04-16T05:59:48.762Z,10.34
2023-04-16T06:02:15.397Z,10.34
2023-04-16T06:04:41.847Z,10.46
2023-04-16T06:07:08.209Z,10.52
2023-04-16T06:09:34.571Z,10.52
2023-04-16T06:12:01.209Z,10.51
2023-04-16T06:14:27.617Z,10.58
2023-04-16T06:16:53.991Z,10.53
2023-04-16T06:19:20.500Z,10.58
2023-04-16T06:21:46.890Z,10.59
2023-04-16T06:24:13.315Z,10.64
2023-04-16T06:26:39.793Z,10.66
2023-04-16T06:29:06.230Z,10.74
2023-04-16T06:31:32.747Z,10.80
2023-04-16T06:33:59.142Z,10.83
2023-04-16T06:36:26.911Z,10.87
2023-04-16T06:38:53.329Z,10.90
2023-04-16T06:41:19.706Z,10.92
2023-04-16T06:43:46.109Z,10.93
2023-04-16T06:46:12.502Z,10.96
2023-04-16T06:48:39.935Z,10.97
2023-04-16T06:51:06.344Z,10.97
2023-04-16T06:53:33.260Z,10.89
2023-04-16T06:55:59.617Z,10.80
2023-04-16T06:58:25.993Z,10.89
2023-04-16T07:00:52.418Z,10.80
2023-04-16T07:03:18.890Z,10.75
2023-04-16T07:05:45.650Z,10.88
2023-04-16T07:08:12.029Z,10.94
2023-04-16T07:10:40.317Z,11.02
2023-04-16T07:13:08.729Z,10.98
2023-04-16T07:15:35.508Z,10.87
2023-04-16T07:18:01.954Z,10.80
2023-04-16T07:20:28.544Z,10.82
2023-04-16T07:22:54.981Z,10.84
2023-04-16T07:25:21.530Z,10.95
2023-04-16T07:27:47.999Z,11.08
2023-04-16T07:30:14.455Z,10.88
2023-04-16T07:32:40.884Z,10.77
2023-04-16T07:35:07.533Z,10.67
2023-04-16T07:37:33.891Z,10.60
2023-04-16T07:40:00.690Z,10.65
2023-04-16T07:42:27.936Z,10.78
2023-04-16T07:44:54.941Z,10.90
2023-04-16T07:47:23.028Z,10.95
2023-04-16T07:49:50.574Z,10.97
2023-04-16T07:52:16.924Z,10.91
2023-04-16T07:54:43.327Z,11.01
2023-04-16T07:57:09.709Z,11.05
2023-04-16T07:59:36.158Z,11.12
2023-04-16T08:02:02.628Z,11.16
2023-04-16T08:04:29.239Z,11.15
2023-04-16T08:06:56.056Z,11.06
2023-04-16T08:09:23.941Z,10.98
2023-04-16T08:11:50.759Z,11.07
2023-04-16T08:14:17.679Z,11.22
2023-04-16T08:16:44.173Z,11.32
2023-04-16T08:19:10.875Z,11.33
2023-04-16T08:21:37.638Z,11.28
2023-04-16T08:24:04.125Z,11.16
2023-04-16T08:26:32.763Z,11.20
2023-04-16T08:28:59.187Z,11.04
2023-04-16T08:31:25.825Z,10.93
2023-04-16T08:33:53.412Z,10.98
2023-04-16T08:36:19.791Z,11.01
2023-04-16T08:38:46.255Z,11.08
2023-04-16T08:41:13.460Z,11.17
2023-04-16T08:43:44.526Z,11.29
2023-04-16T08:46:12.213Z,11.30
2023-04-16T08:48:41.762Z,11.44
2023-04-16T08:51:13.861Z,11.56
2023-04-16T08:53:52.933Z,11.61
2023-04-16T08:56:23.796Z,11.64
2023-04-16T08:58:51.569Z,11.72
2023-04-16T09:01:19.539Z,11.62
2023-04-16T09:03:48.280Z,11.61
2023-04-16T09:06:19.131Z,11.66
2023-04-16T09:08:46.281Z,11.54
2023-04-16T09:11:17.932Z,11.50
2023-04-16T09:13:45.914Z,11.54
2023-04-16T09:16:13.303Z,11.82
2023-04-16T09:18:39.884Z,12.20
2023-04-16T09:21:08.441Z,12.38
2023-04-16T09:23:35.413Z,12.42
2023-04-16T09:26:02.272Z,12.54
2023-04-16T09:28:46.771Z,12.62
2023-04-16T09:31:14.962Z,12.56
2023-04-16T09:33:42.872Z,12.52
2023-04-16T09:36:09.988Z,12.39
2023-04-16T09:38:46.735Z,12.40
2023-04-16T09:41:13.765Z,12.52
2023-04-16T09:43:40.238Z,12.53
2023-04-16T09:46:12.536Z,12.61
2023-04-16T09:48:38.952Z,12.51
2023-04-16T09:51:06.950Z,12.37
2023-04-16T09:53:33.388Z,12.24
2023-04-16T09:56:01.943Z,12.14
2023-04-16T09:58:29.145Z,12.13
2023-04-16T10:01:17.909Z,12.12
2023-04-16T10:03:49.891Z,12.09
2023-04-16T10:06:20.525Z,12.17
2023-04-16T10:08:51.665Z,12.22
2023-04-16T10:11:19.784Z,12.22
2023-04-16T10:13:46.400Z,12.22
2023-04-16T10:16:13.307Z,12.28
2023-04-16T10:18:44.406Z,12.47
2023-04-16T10:21:12.607Z,12.60
2023-04-16T10:23:39.989Z,12.55
2023-04-16T10:26:06.459Z,12.57
2023-04-16T10:28:35.306Z,12.55
2023-04-16T10:31:03.960Z,12.47
2023-04-16T10:33:32.652Z,12.47
2023-04-16T10:36:08.417Z,12.59
2023-04-16T10:38:35.403Z,12.64
2023-04-16T10:41:03.529Z,12.53
2023-04-16T10:43:44.269Z,12.48
2023-04-16T10:46:30.236Z,12.41
2023-04-16T10:49:01.295Z,12.56
2023-04-16T10:51:32.185Z,12.68
2023-04-16T10:54:03.041Z,12.54
2023-04-16T10:56:32.527Z,12.52
2023-04-16T10:58:58.938Z,12.49
2023-04-16T11:01:33.901Z,12.43
2023-04-16T11:04:21.444Z,12.45
2023-04-16T11:07:16.980Z,12.45
2023-04-16T11:09:56.096Z,12.31
2023-04-16T11:12:27.161Z,12.33
2023-04-16T11:14:57.935Z,12.26
2023-04-16T11:17:29.349Z,12.21
2023-04-16T11:19:56.354Z,12.23
2023-04-16T11:22:22.816Z,12.25
2023-04-16T11:24:55.281Z,12.34
2023-04-16T11:27:22.647Z,12.38
2023-04-16T11:30:00.584Z,12.28
2023-04-16T11:32:27.119Z,12.19
2023-04-16T11:34:53.660Z,12.12
2023-04-16T11:37:36.671Z,12.09
2023-04-16T11:40:08.216Z,12.02
2023-04-16T11:42:40.324Z,12.11
2023-04-16T11:45:08.311Z,12.16
2023-04-16T11:47:46.494Z,12.18
2023-04-16T11:50:21.447Z,12.10
2023-04-16T11:52:48.619Z,12.02
2023-04-16T11:55:15.544Z,12.15
2023-04-16T11:57:42.157Z,12.05
2023-04-16T12:00:13.826Z,12.06
2023-04-16T12:02:45.933Z,12.16
2023-04-16T12:05:34.394Z,12.28
2023-04-16T12:08:02.546Z,12.15
2023-04-16T12:10:30.131Z,12.14
2023-04-16T12:13:17.371Z,12.06
2023-04-16T12:15:49.228Z,12.14
2023-04-16T12:18:16.651Z,12.21
2023-04-16T12:20:44.161Z,12.12
2023-04-16T12:23:11.387Z,12.14
2023-04-16T12:25:37.757Z,12.16
2023-04-16T12:28:04.490Z,12.32
2023-04-16T12:30:31.205Z,12.44
2023-04-16T12:33:17.309Z,12.55
2023-04-16T12:35:44.825Z,12.61
2023-04-16T12:38:11.865Z,12.64
2023-04-16T12:40:38.462Z,12.61
2023-04-16T12:43:04.964Z,12.57
2023-04-16T12:45:31.308Z,12.61
2023-04-16T12:47:57.932Z,12.54
2023-04-16T12:50:24.547Z,12.52
2023-04-16T12:52:50.970Z,12.51
2023-04-16T12:55:17.460Z,12.49
2023-04-16T12:57:44.443Z,12.46
2023-04-16T13:00:11.228Z,12.32
2023-04-16T13:02:37.884Z,12.40
2023-04-16T13:05:04.761Z,12.42
2023-04-16T13:07:32.259Z,12.39
2023-04-16T13:09:59.293Z,12.35
2023-04-16T13:12:27.175Z,12.23
2023-04-16T13:14:54.233Z,12.31
2023-04-16T13:17:20.652Z,12.27
2023-04-16T13:19:47.038Z,12.16
2023-04-16T13:22:13.552Z,12.05
2023-04-16T13:24:39.933Z,12.09
2023-04-16T13:27:08.248Z,12.11
2023-04-16T13:29:36.618Z,12.07
2023-04-16T13:32:03.569Z,12.06
2023-04-16T13:34:30.144Z,12.07
2023-04-16T13:36:56.499Z,11.98
2023-04-16T13:39:22.845Z,12.08
2023-04-16T13:41:50.119Z,12.08
2023-04-16T13:44:16.598Z,12.01
2023-04-16T13:46:47.810Z,11.90
2023-04-16T13:49:14.889Z,11.99
2023-04-16T13:51:44.533Z,12.02
2023-04-16T13:54:14.891Z,12.05
2023-04-16T13:56:41.418Z,12.12
2023-04-16T13:59:08.066Z,12.23
2023-04-16T14:01:34.598Z,12.32
2023-04-16T14:04:05.942Z,12.38
2023-04-16T14:06:33.657Z,12.38
2023-04-16T14:09:00.305Z,12.38
2023-04-16T14:11:28.647Z,12.45
2023-04-16T14:13:55.579Z,12.37
2023-04-16T14:16:22.091Z,12.29
2023-04-16T14:18:48.522Z,12.24
2023-04-16T14:21:14.903Z,12.29
2023-04-16T14:23:41.391Z,12.37
2023-04-16T14:26:08.254Z,12.32
2023-04-16T14:28:35.594Z,12.21
2023-04-16T14:31:02.004Z,12.18
2023-04-16T14:33:28.378Z,12.17
2023-04-16T14:35:54.811Z,12.26
2023-04-16T14:38:21.222Z,12.20
2023-04-16T14:40:48.300Z,12.15
2023-04-16T14:43:14.871Z,12.03
2023-04-16T14:45:41.680Z,12.09
2023-04-16T14:48:08.117Z,12.25
2023-04-16T14:50:38.850Z,12.30
2023-04-16T14:53:05.858Z,12.38
2023-04-16T14:55:32.501Z,12.45
2023-04-16T14:57:59.595Z,12.46
2023-04-16T15:00:26.226Z,12.49
2023-04-16T15:02:53.626Z,12.48
2023-04-16T15:05:20.315Z,12.54
2023-04-16T15:07:46.732Z,12.55
2023-04-16T15:10:13.287Z,12.60
2023-04-16T15:12:39.686Z,12.49
2023-04-16T15:15:09.657Z,12.46
2023-04-16T15:17:36.374Z,12.53
2023-04-16T15:20:05.752Z,12.54
2023-04-16T15:22:32.135Z,12.52
2023-04-16T15:24:58.504Z,12.55
2023-04-16T15:27:24.911Z,12.56
2023-04-16T15:29:53.145Z,12.54
2023-04-16T15:32:19.655Z,12.38
2023-04-16T15:34:46.521Z,12.43
2023-04-16T15:37:13.138Z,12.46
2023-04-16T15:39:39.593Z,12.38
2023-04-16T15:42:07.425Z,12.44
2023-04-16T15:44:34.712Z,12.43
2023-04-16T15:47:01.674Z,12.45
2023-04-16T15:49:28.096Z,12.46
2023-04-16T15:51:55.467Z,12.46
2023-04-16T15:54:21.903Z,12.44
2023-04-16T15:56:48.297Z,12.36
2023-04-16T15:59:14.690Z,12.42
2023-04-16T16:01:41.097Z,12.42
2023-04-16T16:04:08.203Z,12.36
2023-04-16T16:06:34.944Z,12.26
2023-04-16T16:09:01.668Z,12.21
2023-04-16T16:11:28.511Z,12.23
2023-04-16T16:13:55.377Z,12.26
2023-04-16T16:16:22.004Z,12.21
2023-04-16T16:18:48.639Z,12.13
2023-04-16T16:21:15.065Z,12.07
2023-04-16T16:23:41.456Z,12.08
2023-04-16T16:26:07.928Z,12.16
2023-04-16T16:28:37.472Z,12.09
2023-04-16T16:31:05.712Z,12.11
2023-04-16T16:33:32.132Z,12.06
2023-04-16T16:35:58.620Z,12.06
2023-04-16T16:38:24.974Z,12.07
2023-04-16T16:40:51.326Z,12.06
2023-04-16T16:43:17.745Z,12.15
2023-04-16T16:45:44.174Z,12.14
2023-04-16T16:48:10.649Z,12.05
2023-04-16T16:50:37.043Z,12.07
2023-04-16T16:53:03.547Z,12.09
2023-04-16T16:55:31.195Z,12.13
2023-04-16T16:57:58.343Z,12.17
2023-04-16T17:00:24.859Z,12.08
2023-04-16T17:02:51.959Z,12.09
2023-04-16T17:05:18.662Z,12.12
2023-04-16T17:07:45.701Z,12.11
2023-04-16T17:10:15.712Z,12.08
2023-04-16T17:12:42.407Z,11.99
2023-04-16T17:15:09.540Z,11.98
2023-04-16T17:17:35.969Z,12.01
2023-04-16T17:20:08.154Z,11.99
2023-04-16T17:22:34.865Z,12.00
2023-04-16T17:25:01.649Z,11.98
2023-04-16T17:27:29.338Z,12.01
2023-04-16T17:30:00.004Z,12.03
2023-04-16T17:32:26.695Z,12.04
2023-04-16T17:34:55.381Z,12.05
2023-04-16T17:37:22.592Z,12.00
2023-04-16T17:39:49.443Z,11.98
2023-04-16T17:42:16.036Z,11.96
2023-04-16T17:44:42.426Z,11.97
2023-04-16T17:47:08.976Z,11.89
2023-04-16T17:49:35.476Z,11.91
2023-04-16T17:52:02.040Z,11.90
2023-04-16T17:54:28.432Z,11.85
2023-04-16T17:56:54.824Z,11.85
2023-04-16T17:59:21.739Z,11.86
2023-04-16T18:01:49.474Z,11.87
2023-04-16T18:04:16.479Z,11.87
2023-04-16T18:06:43.254Z,11.78
2023-04-16T18:09:09.628Z,11.73
2023-04-16T18:11:36.179Z,11.74
2023-04-16T18:14:02.584Z,11.68
2023-04-16T18:16:29.030Z,11.69
2023-04-16T18:18:55.497Z,11.67
2023-04-16T18:21:21.989Z,11.64
2023-04-16T18:23:48.373Z,11.65
2023-04-16T18:26:18.410Z,11.65
2023-04-16T18:28:47.210Z,11.65
2023-04-16T18:31:13.836Z,11.64
2023-04-16T18:33:55.711Z,11.63
2023-04-16T18:36:24.258Z,11.61
2023-04-16T18:39:00.974Z,11.61
2023-04-16T18:41:29.554Z,11.59
2023-04-16T18:43:56.045Z,11.59
2023-04-16T18:46:22.499Z,11.58
2023-04-16T18:48:48.905Z,11.62
2023-04-16T18:51:19.449Z,11.63
2023-04-16T18:53:52.237Z,11.62
2023-04-16T18:56:18.664Z,11.63
2023-04-16T18:58:45.042Z,11.66
2023-04-16T19:01:13.399Z,11.63
2023-04-16T19:03:40.050Z,11.65
2023-04-16T19:06:06.489Z,11.64
2023-04-16T19:08:32.998Z,11.66
2023-04-16T19:10:59.499Z,11.65
2023-04-16T19:13:26.007Z,11.66
2023-04-16T19:16:00.833Z,11.66
2023-04-16T19:18:28.055Z,11.64
2023-04-16T19:21:01.170Z,11.64
2023-04-16T19:23:28.146Z,11.66
2023-04-16T19:25:57.740Z,11.66
2023-04-16T19:28:24.631Z,11.63
2023-04-16T19:30:52.254Z,11.65
2023-04-16T19:33:18.968Z,11.61
2023-04-16T19:35:46.139Z,11.61
2023-04-16T19:38:12.508Z,11.60
2023-04-16T19:40:38.971Z,11.61
2023-04-16T19:43:05.592Z,11.55
2023-04-16T19:45:32.068Z,11.53
2023-04-16T19:47:58.869Z,11.54
2023-04-16T19:50:25.265Z,11.52
2023-04-16T19:52:51.925Z,11.51
2023-04-16T19:55:18.902Z,11.56
2023-04-16T19:57:48.035Z,11.56
2023-04-16T20:00:14.850Z,11.54
2023-04-16T20:02:41.424Z,11.54
2023-04-16T20:05:08.484Z,11.53
2023-04-16T20:07:34.918Z,11.49
2023-04-16T20:10:02.674Z,11.49
2023-04-16T20:12:29.055Z,11.47
2023-04-16T20:14:55.641Z,11.48
2023-04-16T20:17:22.236Z,11.43
2023-04-16T20:19:49.396Z,11.41
2023-04-16T20:22:18.171Z,11.42
2023-04-16T20:24:47.879Z,11.41
2023-04-16T20:27:14.971Z,11.40
2023-04-16T20:29:41.917Z,11.43
2023-04-16T20:32:08.444Z,11.38
2023-04-16T20:34:34.928Z,11.36
2023-04-16T20:37:01.364Z,11.33
2023-04-16T20:39:34.575Z,11.32
2023-04-16T20:42:04.149Z,11.30
2023-04-16T20:44:40.102Z,11.32
2023-04-16T20:47:15.161Z,11.25
2023-04-16T20:49:48.200Z,11.23
2023-04-16T20:52:17.669Z,11.20
2023-04-16T20:54:44.397Z,11.21
2023-04-16T20:57:11.033Z,11.21
2023-04-16T20:59:37.426Z,11.24
2023-04-16T21:02:04.368Z,11.22
2023-04-16T21:04:31.024Z,11.23
2023-04-16T21:06:57.518Z,11.23
2023-04-16T21:09:24.163Z,11.28
2023-04-16T21:11:50.652Z,11.27
2023-04-16T21:14:17.023Z,11.25
2023-04-16T21:16:43.428Z,11.29
2023-04-16T21:19:10.046Z,11.25
2023-04-16T21:21:38.159Z,11.23
2023-04-16T21:24:04.677Z,11.21
2023-04-16T21:26:31.037Z,11.23
2023-04-16T21:28:57.421Z,11.20
2023-04-16T21:31:24.120Z,11.21
2023-04-16T21:33:50.682Z,11.22
2023-04-16T21:36:17.129Z,11.20
2023-04-16T21:38:43.550Z,11.21
2023-04-16T21:41:10.014Z,11.17
2023-04-16T21:43:36.365Z,11.18
2023-04-16T21:46:02.929Z,11.13
2023-04-16T21:48:29.431Z,11.13
2023-04-16T21:51:00.973Z,11.10
2023-04-16T21:53:31.987Z,11.12
2023-04-16T21:55:58.600Z,11.05
2023-04-16T21:58:28.164Z,11.06
2023-04-16T22:00:54.628Z,11.07
2023-04-16T22:03:27.676Z,11.05
2023-04-16T22:06:00.603Z,11.07
2023-04-16T22:08:30.879Z,11.07
2023-04-16T22:11:01.927Z,11.07
2023-04-16T22:13:32.240Z,11.03
2023-04-16T22:16:02.505Z,11.03
2023-04-16T22:18:32.620Z,11.00
2023-04-16T22:20:59.892Z,10.97
2023-04-16T22:23:26.307Z,10.90
2023-04-16T22:25:54.770Z,10.91
2023-04-16T22:28:21.786Z,10.93
2023-04-16T22:30:48.325Z,10.90
2023-04-16T22:33:14.742Z,10.87
2023-04-16T22:35:41.328Z,10.88
2023-04-16T22:38:07.733Z,10.89
2023-04-16T22:40:34.091Z,10.89
2023-04-16T22:43:00.529Z,10.86
2023-04-16T22:45:27.289Z,10.86
2023-04-16T22:47:53.802Z,10.90
2023-04-16T22:50:20.634Z,10.90
2023-04-16T22:52:47.088Z,10.88
2023-04-16T22:55:13.428Z,10.85
2023-04-16T22:57:39.807Z,10.79
2023-04-16T23:00:09.666Z,10.75
2023-04-16T23:02:36.287Z,10.76
2023-04-16T23:05:03.010Z,10.75
2023-04-16T23:07:29.420Z,10.79
2023-04-16T23:09:55.804Z,10.83
2023-04-16T23:12:22.152Z,10.82
2023-04-16T23:14:48.550Z,10.76
2023-04-16T23:17:14.927Z,10.77
2023-04-16T23:19:41.802Z,10.77
2023-04-16T23:22:08.187Z,10.75
2023-04-16T23:24:34.610Z,10.66
2023-04-16T23:27:01.345Z,10.60
2023-04-16T23:29:27.777Z,10.56
2023-04-16T23:31:54.185Z,10.56
2023-04-16T23:34:20.546Z,10.53
2023-04-16T23:36:46.960Z,10.51
2023-04-16T23:39:13.504Z,10.48
2023-04-16T23:41:40.294Z,10.52
2023-04-16T23:44:06.652Z,10.54
2023-04-16T23:46:33.037Z,10.52
2023-04-16T23:48:59.403Z,10.55
2023-04-16T23:51:26.507Z,10.52
2023-04-16T23:53:52.849Z,10.52
2023-04-16T23:56:19.211Z,10.50
2023-04-16T23:58:45.747Z,10.54
